KOFF

Offutt AFB Airport

Omaha, Nebraska, USA
TAF KOFF 241800Z 2418/2524 17012KT 9999 BKN030 QNH2980INS TEMPO 2418/2421 17015G25KT BECMG 2500/2501 19009KT 9999 SCT010 OVC030 QNH2978INS BECMG 2505/2506 23009KT 8000 -SHRA BKN007 OVC015 QNH2984INS TEMPO 2509/2514 31015G25KT 6000 -TSRA OVC005CB BECMG 2513/2514 34009KT 9999 NSW OVC007 QNH2985INS BECMG 2518/2519 33010G15KT 9999 BKN020 OVC035 QNH2997INS TX25/2420Z TN14/2510Z
Issued Valid From Valid To
Sep-24 @ 18:00 UTC
(8 hours ago)
Sep-24 @ 18:00 UTC
(8 hours ago)
Sep-26 @ 00:00 UTC
(in 22 hours)
Expired Click to View Sep-24 @ 18:00 to Sep-25 @ 00:00
TAF KOFF 241800Z 2418/2524 17012KT 9999 BKN030 QNH2980INS
Wind Visibility Clouds Readings
170° at 12 knots Greater than 6 miles
  • Broken at 3,000' AGL
Altimeter 29.79" Hg
Pressure 1009 hPa
Expired Click to View Sep-24 @ 18:00 to Sep-24 @ 21:00
TEMPO 2418/2421 17015G25KT
Wind
170° at 15 knots
 Gusting to 25 knots
Becoming Sep-25 @ 00:00 to Sep-25 @ 05:00
BECMG 2500/2501 19009KT 9999 SCT010 OVC030 QNH2978INS
Wind Visibility Clouds Readings
190° at 9 knots Greater than 6 miles
  • Scattered at 1,000' AGL
  • Overcast at 3,000' AGL
Altimeter 29.79" Hg
Pressure 1009 hPa
Becoming Sep-25 @ 05:00 to Sep-25 @ 13:00
BECMG 2505/2506 23009KT 8000 -SHRA BKN007 OVC015 QNH2984INS
Wind Visibility Clouds Conditions Readings
230° at 9 knots 5.0 miles
  • Broken at 700' AGL
  • Overcast at 1,500' AGL
  • Light Rain
Altimeter 29.85" Hg
Pressure 1011 hPa
Temporary Sep-25 @ 09:00 to Sep-25 @ 14:00
TEMPO 2509/2514 31015G25KT 6000 -TSRA OVC005CB
Wind Visibility Clouds Conditions
310° at 15 knots
 Gusting to 25 knots
3.7 miles
  • Overcast at 500' AGL
  • Light Thunderstorm
  • Light Rain
Becoming Sep-25 @ 13:00 to Sep-25 @ 18:00
BECMG 2513/2514 34009KT 9999 NSW OVC007 QNH2985INS
Wind Visibility Clouds Conditions Readings
340° at 9 knots Greater than 6 miles
  • Overcast at 700' AGL
Altimeter 29.85" Hg
Pressure 1011 hPa
Becoming Sep-25 @ 18:00 to Sep-26 @ 00:00
BECMG 2518/2519 33010G15KT 9999 BKN020 OVC035 QNH2997INS TX25/2420Z TN14/2510Z
Wind Visibility Clouds Conditions Readings
330° at 10 knots
 Gusting to 15 knots
Greater than 6 miles
  • Broken at 2,000' AGL
  • Overcast at 3,500' AGL
Altimeter 29.97" Hg
Pressure 1015 hPa
TAF KOFF 241800Z 2418/2524 17012KT 9999 BKN030 QNH2980INS TEMPO 2418/2421 17015G25KT BECMG 2500/2501 19009KT 9999 SCT010 OVC030 QNH2978INS BECMG 2505/2506 23009KT 8000 -SHRA BKN007 OVC015 QNH2984INS TEMPO 2509/2514 31015G25KT 6000 -TSRA OVC005CB BECMG 2513/2514 34009KT 9999 NSW OVC007 QNH2985INS BECMG 2518/2519 33010G15KT 9999 BKN020 OVC035 QNH2997INS TX25/2420Z TN14/2510Z
Issued Sep-24 @ 18:00 UTC
(8 hours ago)
Valid From Sep-24 @ 18:00 UTC
(8 hours ago)
Valid To Sep-26 @ 00:00 UTC
(in 22 hours)
Sep-24 @ 18:00 - Sep-25 @ 00:00
Wind Visibility
170° at 12 knots Greater than 6 miles
Clouds
  • Broken at 3,000' AGL
Sep-24 @ 18:00 - Sep-24 @ 21:00
Wind
170° at 15 knots
 Gusting to 25 knots
Becoming Sep-25 @ 00:00 - Sep-25 @ 05:00
Wind Visibility
190° at 9 knots Greater than 6 miles
Clouds
  • Scattered at 1,000' AGL
  • Overcast at 3,000' AGL
Becoming Sep-25 @ 05:00 - Sep-25 @ 13:00
Wind Visibility
230° at 9 knots 5.0 miles
Clouds
  • Broken at 700' AGL
  • Overcast at 1,500' AGL
Conditions
  • Light Rain
Temporary Sep-25 @ 09:00 - Sep-25 @ 14:00
Wind Visibility
310° at 15 knots
 Gusting to 25 knots
3.7 miles
Clouds
  • Overcast at 500' AGL
Conditions
  • Light Thunderstorm
  • Light Rain
Becoming Sep-25 @ 13:00 - Sep-25 @ 18:00
Wind Visibility
340° at 9 knots Greater than 6 miles
Clouds
  • Overcast at 700' AGL
Conditions
Becoming Sep-25 @ 18:00 - Sep-26 @ 00:00
Wind Visibility
330° at 10 knots
 Gusting to 15 knots
Greater than 6 miles
Clouds
  • Broken at 2,000' AGL
  • Overcast at 3,500' AGL
Conditions